Terminal Aerodrome Forecast
Issued by NWS Wilmington, OH

Home | Current Version | Previous Version | Text Only | Print | Product List | Glossary On
Versions: 1 2 3 4 5 6 7 8 9 10 11 12
000
FTUS41 KILN 112300
TAFDAY
TAF
KDAY 112330Z 1200/1224 VRB03KT P6SM FEW060 SCT250
     FM120200 VRB03KT P6SM BKN250
     FM121500 22008KT P6SM SCT050 BKN120
     FM121900 22010KT P6SM VCSH BKN060=

USA.gov is the U.S. government's official web portal to all federal, state and local government web resources and services.